Time;durP1;ratioP1;P1;durP2;ratioP2;P2;SDS_P1;SDS_P2;PMS_P1;PMS_P2;Temp;Humidity;BMP_temperature;BMP_pressure;BME280_temperature;BME280_humidity;BME280_pressure;Samples;Min_cycle;Max_cycle;Signal;HPM_P1;HPM_P2
2021/07/28 00:00:52;;;;;;;20.52;12.15;;;717.00;2432.00;;;;;;5073540;28;20046;-73
2021/07/28 00:03:18;;;;;;;20.73;11.30;;;717.00;2432.00;;;;;;5064109;28;20016;-73
2021/07/28 00:05:44;;;;;;;18.15;11.13;;;717.00;2432.00;;;;;;5071141;28;20115;-73
2021/07/28 00:08:10;;;;;;;17.75;11.32;;;716.90;2432.00;;;;;;5065307;28;20017;-72
2021/07/28 00:10:35;;;;;;;24.15;11.45;;;716.80;2432.00;;;;;;5063827;28;20025;-72
2021/07/28 00:13:01;;;;;;;19.42;12.20;;;692.10;2432.00;;;;;;5061042;28;20024;-73
2021/07/28 00:15:27;;;;;;;27.83;11.93;;;692.10;2432.00;;;;;;5068159;28;20358;-73
2021/07/28 00:17:57;;;;;;;25.10;11.25;;;692.00;2432.00;;;;;;5073496;28;20017;-73
2021/07/28 00:25:35;;;;;;;19.88;11.60;;;691.90;2432.00;;;;;;5068035;28;20127;-73
2021/07/28 00:28:03;;;;;;;20.35;12.38;;;691.80;2432.00;;;;;;5070383;28;20616;-73
2021/07/28 00:30:28;;;;;;;25.15;11.43;;;691.80;2432.00;;;;;;5070409;28;20085;-73
2021/07/28 00:32:54;;;;;;;20.77;11.30;;;691.70;2432.00;;;;;;5071692;28;20418;-73
2021/07/28 00:35:20;;;;;;;19.00;10.80;;;691.80;2432.00;;;;;;5071608;28;20017;-73
2021/07/28 00:37:46;;;;;;;22.45;12.07;;;691.70;2432.00;;;;;;5071449;28;20056;-73
2021/07/28 00:40:13;;;;;;;19.35;11.05;;;691.70;2432.00;;;;;;5068379;28;20028;-72
2021/07/28 00:42:39;;;;;;;19.63;12.27;;;691.60;2432.00;;;;;;5071503;28;20055;-73
2021/07/28 00:45:05;;;;;;;21.45;12.18;;;691.70;2432.00;;;;;;5071874;28;20056;-73
2021/07/28 00:47:31;;;;;;;18.65;11.65;;;691.70;2432.00;;;;;;5078673;28;20020;-73
2021/07/28 00:50:08;;;;;;;17.98;10.85;;;691.40;2432.00;;;;;;5069543;28;20029;-73
2021/07/28 00:52:48;;;;;;;21.70;11.57;;;691.40;2432.00;;;;;;5062614;28;20024;-73
2021/07/28 00:55:14;;;;;;;20.10;11.90;;;691.40;2432.00;;;;;;5068409;28;20070;-73
2021/07/28 00:57:40;;;;;;;14.80;10.25;;;691.50;2432.00;;;;;;5071547;28;20426;-75
2021/07/28 01:00:06;;;;;;;16.48;10.68;;;691.40;2432.00;;;;;;5082699;28;20045;-73
2021/07/28 01:02:32;;;;;;;13.38;10.15;;;691.40;2432.00;;;;;;5087902;28;20077;-72
2021/07/28 01:04:58;;;;;;;19.63;11.05;;;691.30;2432.00;;;;;;5075645;28;20044;-72
2021/07/28 01:07:23;;;;;;;23.17;12.35;;;691.20;2432.00;;;;;;5081167;28;20020;-72
2021/07/28 01:09:49;;;;;;;19.50;10.88;;;691.20;2432.00;;;;;;5072024;28;20028;-72
2021/07/28 01:12:15;;;;;;;25.05;11.13;;;691.20;2432.00;;;;;;5068220;28;20029;-72
2021/07/28 01:14:43;;;;;;;17.52;11.32;;;691.20;2432.00;;;;;;5079657;28;20031;-72
2021/07/28 01:17:09;;;;;;;20.45;12.57;;;691.20;2432.00;;;;;;5074078;28;20032;-72
2021/07/28 01:19:41;;;;;;;19.38;10.32;;;666.50;2432.00;;;;;;5082538;28;20072;-72
2021/07/28 01:22:07;;;;;;;17.20;11.05;;;666.50;2432.00;;;;;;5056432;28;20021;-72
2021/07/28 01:24:35;;;;;;;18.50;10.48;;;691.20;2432.00;;;;;;5069272;28;20037;-73
2021/07/28 01:27:03;;;;;;;20.25;11.10;;;666.50;2432.00;;;;;;5075093;28;20467;-72
2021/07/28 01:29:30;;;;;;;18.75;11.25;;;666.50;2432.00;;;;;;5083163;28;20047;-72
2021/07/28 01:31:56;;;;;;;20.73;12.43;;;666.30;2432.00;;;;;;5075815;28;20109;-72
2021/07/28 01:34:23;;;;;;;20.58;12.48;;;666.40;2432.00;;;;;;5075087;28;20019;-72
2021/07/28 01:36:51;;;;;;;23.92;12.57;;;666.40;2432.00;;;;;;5075686;28;20021;-72
2021/07/28 01:39:17;;;;;;;15.50;10.95;;;666.40;2432.00;;;;;;5075372;28;20048;-72
2021/07/28 01:41:44;;;;;;;14.70;11.20;;;666.40;2432.00;;;;;;5075211;28;20063;-72
2021/07/28 01:44:09;;;;;;;16.90;12.10;;;666.40;2432.00;;;;;;5073861;28;20032;-73
2021/07/28 01:46:35;;;;;;;21.92;11.48;;;666.50;2432.00;;;;;;5074010;28;20041;-73
2021/07/28 01:49:01;;;;;;;20.33;11.07;;;666.40;2432.00;;;;;;5073643;28;20029;-73
2021/07/28 01:51:27;;;;;;;22.20;12.27;;;666.30;2432.00;;;;;;5073443;28;20074;-72
2021/07/28 01:53:52;;;;;;;19.33;12.13;;;666.40;2432.00;;;;;;5075305;28;20012;-72
2021/07/28 01:56:18;;;;;;;20.33;11.07;;;666.50;2432.00;;;;;;5074929;28;20016;-72
2021/07/28 01:58:53;;;;;;;17.13;11.30;;;666.50;2432.00;;;;;;5075040;28;20024;-74
2021/07/28 02:01:20;;;;;;;21.17;11.32;;;666.40;2432.00;;;;;;5075124;28;20036;-72
2021/07/28 02:03:46;;;;;;;23.80;11.55;;;666.30;2432.00;;;;;;5074612;28;20039;-72
2021/07/28 02:06:11;;;;;;;19.20;11.15;;;666.20;2432.00;;;;;;5075003;28;20387;-72
2021/07/28 02:08:37;;;;;;;18.48;12.13;;;666.20;2432.00;;;;;;5073342;28;20029;-72
2021/07/28 02:11:03;;;;;;;17.02;11.77;;;666.10;2432.00;;;;;;5074798;28;20460;-72
2021/07/28 02:13:28;;;;;;;19.75;11.88;;;666.00;2432.00;;;;;;5074568;28;20025;-72
2021/07/28 02:15:54;;;;;;;20.00;12.63;;;666.00;2432.00;;;;;;5073393;28;20422;-72
2021/07/28 02:18:20;;;;;;;15.48;10.98;;;666.10;2432.00;;;;;;5074458;28;20017;-72
2021/07/28 02:20:46;;;;;;;22.65;11.18;;;666.20;2432.00;;;;;;5076377;28;20031;-73
2021/07/28 02:23:12;;;;;;;26.67;12.93;;;666.30;2432.00;;;;;;5084774;28;20032;-72
2021/07/28 02:25:37;;;;;;;22.48;11.68;;;666.30;2432.00;;;;;;5072870;28;20082;-72
2021/07/28 02:28:04;;;;;;;16.52;11.15;;;666.00;2432.00;;;;;;5073993;28;20033;-73
2021/07/28 02:30:30;;;;;;;17.95;11.75;;;666.10;2432.00;;;;;;5077026;28;20046;-72
2021/07/28 02:32:55;;;;;;;17.35;11.75;;;666.10;2432.00;;;;;;5072499;28;20127;-72
2021/07/28 02:35:21;;;;;;;23.50;14.27;;;665.70;2432.00;;;;;;5073881;28;20062;-72
2021/07/28 02:37:47;;;;;;;18.77;11.57;;;665.60;2432.00;;;;;;5074324;28;20074;-72
2021/07/28 02:40:15;;;;;;;20.77;13.07;;;665.70;2432.00;;;;;;5073877;28;20024;-72
2021/07/28 02:42:41;;;;;;;15.77;11.73;;;665.70;2432.00;;;;;;5074267;28;20551;-72
2021/07/28 02:45:08;;;;;;;18.30;11.50;;;665.80;2432.00;;;;;;5066965;28;20033;-72
2021/07/28 02:47:34;;;;;;;19.27;12.07;;;665.60;2432.00;;;;;;5072854;28;20475;-72
2021/07/28 02:49:59;;;;;;;15.32;12.32;;;665.60;2432.00;;;;;;5075571;28;20143;-72
2021/07/28 02:52:25;;;;;;;17.90;12.52;;;665.60;2432.00;;;;;;5086126;28;20510;-72
2021/07/28 02:54:51;;;;;;;19.45;11.90;;;665.60;2432.00;;;;;;5082369;28;20104;-72
2021/07/28 02:57:17;;;;;;;21.30;11.68;;;665.60;2432.00;;;;;;5081001;28;20402;-73
2021/07/28 02:59:42;;;;;;;21.67;12.45;;;665.60;2432.00;;;;;;5069740;28;20036;-72
2021/07/28 03:02:08;;;;;;;20.88;12.80;;;665.60;2432.00;;;;;;5068468;28;20025;-72
2021/07/28 03:04:34;;;;;;;23.48;13.25;;;665.70;2432.00;;;;;;5073223;28;20493;-72
2021/07/28 03:06:59;;;;;;;19.65;12.20;;;665.70;2432.00;;;;;;5072715;28;20023;-72
2021/07/28 03:09:25;;;;;;;25.33;13.90;;;665.70;2432.00;;;;;;5073797;28;20020;-73
2021/07/28 03:11:51;;;;;;;19.17;12.57;;;665.70;2432.00;;;;;;5071790;28;20129;-72
2021/07/28 03:14:17;;;;;;;23.45;11.73;;;665.70;2432.00;;;;;;5068167;28;20044;-72
2021/07/28 03:16:42;;;;;;;20.90;12.75;;;665.70;2432.00;;;;;;5079963;28;20024;-72
2021/07/28 03:19:08;;;;;;;25.85;12.98;;;665.70;2432.00;;;;;;5080347;28;20064;-73
2021/07/28 03:21:34;;;;;;;20.38;11.50;;;665.70;2432.00;;;;;;5081565;28;20020;-72
2021/07/28 03:24:00;;;;;;;19.35;12.95;;;665.70;2432.00;;;;;;5071245;28;20046;-72
2021/07/28 03:26:26;;;;;;;19.75;13.80;;;665.70;2432.00;;;;;;5073070;28;20450;-72
2021/07/28 03:28:52;;;;;;;27.05;12.70;;;665.60;2432.00;;;;;;5070963;28;20080;-73
2021/07/28 03:31:18;;;;;;;18.13;12.85;;;665.70;2432.00;;;;;;5071837;28;20496;-72
2021/07/28 03:33:43;;;;;;;14.98;11.40;;;665.80;2432.00;;;;;;5070512;28;20033;-71
2021/07/28 03:36:09;;;;;;;17.17;12.57;;;665.90;2432.00;;;;;;5072436;28;20433;-71
2021/07/28 03:38:35;;;;;;;19.58;14.45;;;666.00;2432.00;;;;;;5071745;28;21006;-72
2021/07/28 03:41:01;;;;;;;19.77;12.15;;;665.90;2432.00;;;;;;5068380;28;20021;-71
2021/07/28 03:43:26;;;;;;;22.25;13.20;;;665.90;2432.00;;;;;;5071417;28;20371;-71
2021/07/28 03:45:53;;;;;;;18.65;13.85;;;665.90;2432.00;;;;;;5071669;28;20431;-71
2021/07/28 03:48:19;;;;;;;22.27;12.32;;;666.00;2432.00;;;;;;5071177;28;20024;-71
2021/07/28 03:50:45;;;;;;;23.52;14.48;;;666.10;2432.00;;;;;;5070626;28;20032;-71
2021/07/28 03:53:10;;;;;;;20.95;12.73;;;666.20;2432.00;;;;;;5068612;28;20020;-71
2021/07/28 03:55:36;;;;;;;25.55;13.48;;;666.10;2432.00;;;;;;5068774;28;20103;-71
2021/07/28 03:58:02;;;;;;;18.08;14.15;;;666.20;2432.00;;;;;;5068973;28;20017;-71
2021/07/28 04:00:28;;;;;;;17.77;12.23;;;666.10;2432.00;;;;;;5071505;28;20020;-71
2021/07/28 04:02:54;;;;;;;21.83;13.38;;;666.10;2432.00;;;;;;5069033;28;20577;-71
2021/07/28 04:05:20;;;;;;;14.88;12.05;;;666.10;2432.00;;;;;;5071437;28;20017;-71
2021/07/28 04:07:53;;;;;;;21.33;13.23;;;666.10;2432.00;;;;;;5070813;28;20116;-71
2021/07/28 04:10:18;;;;;;;20.00;13.35;;;666.10;2432.00;;;;;;5065937;28;20025;-71
2021/07/28 04:12:44;;;;;;;16.10;11.60;;;666.10;2432.00;;;;;;5067250;28;20660;-71
2021/07/28 04:15:10;;;;;;;21.88;14.55;;;666.00;2432.00;;;;;;5074960;28;20060;-71
2021/07/28 04:17:36;;;;;;;20.92;13.48;;;665.90;2432.00;;;;;;5071485;28;20029;-71
2021/07/28 04:20:02;;;;;;;17.67;12.70;;;666.10;2432.00;;;;;;5071823;28;20035;-71
2021/07/28 04:22:28;;;;;;;23.30;13.60;;;666.10;2432.00;;;;;;5070953;28;20467;-71
2021/07/28 04:24:54;;;;;;;15.02;13.00;;;666.30;2432.00;;;;;;5070104;28;20033;-71
2021/07/28 04:27:20;;;;;;;22.02;12.23;;;666.40;2432.00;;;;;;5071381;28;20031;-71
2021/07/28 04:29:45;;;;;;;23.00;13.95;;;691.20;2432.00;;;;;;5066523;28;20401;-71
2021/07/28 04:32:11;;;;;;;23.60;13.52;;;691.40;2432.00;;;;;;5059015;28;20344;-72
2021/07/28 04:34:37;;;;;;;19.75;12.43;;;691.40;2432.00;;;;;;5071879;28;20052;-71
2021/07/28 04:37:03;;;;;;;20.63;14.05;;;691.70;2432.00;;;;;;5071209;28;20017;-71
2021/07/28 04:39:33;;;;;;;24.60;14.15;;;691.80;2432.00;;;;;;5063443;28;20029;-72
2021/07/28 04:41:58;;;;;;;20.17;13.23;;;691.80;2432.00;;;;;;5059360;28;20017;-72
2021/07/28 04:44:25;;;;;;;25.10;13.38;;;691.90;2432.00;;;;;;5075009;28;20047;-72
2021/07/28 04:46:50;;;;;;;22.42;12.60;;;692.10;2432.00;;;;;;5063763;28;20464;-72
2021/07/28 04:49:16;;;;;;;19.35;12.32;;;716.90;2432.00;;;;;;5075980;28;20032;-72
2021/07/28 04:51:42;;;;;;;21.63;13.95;;;717.00;2432.00;;;;;;5061276;28;20025;-71
2021/07/28 04:54:08;;;;;;;19.13;12.77;;;717.10;2432.00;;;;;;5070247;28;20557;-71
2021/07/28 04:56:34;;;;;;;18.35;12.40;;;717.30;2432.00;;;;;;5074874;28;20071;-71
2021/07/28 04:58:59;;;;;;;19.75;13.15;;;717.40;2432.00;;;;;;5068402;28;20396;-72
2021/07/28 05:01:25;;;;;;;18.92;13.35;;;717.50;2432.00;;;;;;5059545;28;20024;-71
2021/07/28 05:03:51;;;;;;;26.85;13.63;;;717.70;2432.00;;;;;;5061606;28;20733;-72
2021/07/28 05:06:16;;;;;;;18.08;11.52;;;742.40;2432.00;;;;;;5070981;28;20025;-72
2021/07/28 05:08:42;;;;;;;25.42;13.98;;;742.50;2432.00;;;;;;5065619;28;20033;-72
2021/07/28 05:11:08;;;;;;;20.88;13.35;;;742.60;2432.00;;;;;;5077210;28;20054;-72
2021/07/28 05:13:33;;;;;;;20.90;13.35;;;742.80;2432.00;;;;;;5069009;28;20040;-71
2021/07/28 05:15:59;;;;;;;18.52;11.85;;;742.80;2432.00;;;;;;5069305;28;20043;-71
2021/07/28 05:18:25;;;;;;;18.98;11.60;;;742.90;2432.00;;;;;;5064222;28;20479;-71
2021/07/28 05:20:51;;;;;;;23.45;14.02;;;743.00;2432.00;;;;;;5068482;28;20056;-71
2021/07/28 05:23:16;;;;;;;53.55;42.20;;;743.00;2432.00;;;;;;5067579;28;20032;-71
2021/07/28 05:25:42;;;;;;;31.67;24.88;;;743.10;2432.00;;;;;;5070595;28;20028;-72
2021/07/28 05:28:08;;;;;;;29.42;18.48;;;743.20;2432.00;;;;;;5069658;28;20044;-72
2021/07/28 05:30:34;;;;;;;30.10;14.68;;;768.00;2432.00;;;;;;5070094;28;20115;-71
2021/07/28 05:33:00;;;;;;;27.45;18.85;;;768.10;2432.00;;;;;;5068295;28;20399;-71
2021/07/28 05:35:26;;;;;;;20.98;17.38;;;768.10;2432.00;;;;;;5070054;28;20555;-71
2021/07/28 05:38:02;;;;;;;22.15;15.85;;;768.30;2432.00;;;;;;5070560;28;20116;-71
2021/07/28 05:40:29;;;;;;;47.53;35.05;;;768.40;2432.00;;;;;;5071221;28;20021;-72
2021/07/28 05:42:55;;;;;;;22.50;15.70;;;768.50;2432.00;;;;;;5070695;28;20024;-72
2021/07/28 05:45:21;;;;;;;27.20;21.30;;;768.50;2432.00;;;;;;5070665;28;20024;-72
2021/07/28 05:47:47;;;;;;;42.00;30.90;;;768.70;2432.00;;;;;;5070700;28;20077;-72
2021/07/28 05:50:14;;;;;;;21.02;15.90;;;768.80;2432.00;;;;;;5070619;28;20446;-70
2021/07/28 05:52:40;;;;;;;23.60;14.70;;;793.60;2432.00;;;;;;5069482;28;20021;-70
2021/07/28 05:55:06;;;;;;;21.52;13.50;;;793.80;2432.00;;;;;;5069047;28;21036;-70
2021/07/28 05:57:32;;;;;;;27.02;15.60;;;793.90;2432.00;;;;;;5054225;28;20040;-71
2021/07/28 05:59:58;;;;;;;25.90;20.40;;;794.10;2432.00;;;;;;5068608;28;20028;-69
2021/07/28 06:02:24;;;;;;;26.58;14.52;;;794.30;2432.00;;;;;;5054559;28;20013;-70
2021/07/28 06:04:49;;;;;;;26.58;14.82;;;794.50;2432.00;;;;;;5063698;28;20795;-69
2021/07/28 06:07:15;;;;;;;30.50;14.13;;;819.20;2432.00;;;;;;5068572;28;20368;-70
2021/07/28 06:09:41;;;;;;;18.35;13.95;;;819.20;2432.00;;;;;;5072854;28;20074;-70
2021/07/28 06:12:07;;;;;;;24.25;14.73;;;819.40;2432.00;;;;;;5065481;28;20057;-70
2021/07/28 06:14:33;;;;;;;19.23;11.77;;;819.60;2432.00;;;;;;5069268;28;20018;-70
2021/07/28 06:16:59;;;;;;;26.60;13.73;;;819.70;2432.00;;;;;;5069284;28;20075;-70
2021/07/28 06:19:25;;;;;;;23.42;13.18;;;819.80;2432.00;;;;;;5068482;28;20039;-70
2021/07/28 06:21:50;;;;;;;19.35;12.75;;;819.90;2432.00;;;;;;5068886;28;20079;-70
2021/07/28 06:24:16;;;;;;;20.83;13.75;;;844.80;2432.00;;;;;;5067795;28;20517;-70
2021/07/28 06:26:42;;;;;;;18.00;12.45;;;845.00;2432.00;;;;;;5071210;28;20040;-70
2021/07/28 06:29:07;;;;;;;18.88;13.52;;;845.00;2432.00;;;;;;5062882;28;20403;-70
2021/07/28 06:31:33;;;;;;;23.27;12.27;;;845.20;2432.00;;;;;;5058566;28;20037;-70
2021/07/28 06:33:59;;;;;;;20.33;13.35;;;845.40;2432.00;;;;;;5072925;28;20028;-70
2021/07/28 06:36:25;;;;;;;18.38;12.13;;;845.50;2432.00;;;;;;5072525;28;20104;-70
2021/07/28 06:38:50;;;;;;;21.63;12.88;;;845.50;2432.00;;;;;;5073019;28;20028;-70
2021/07/28 06:41:16;;;;;;;27.20;13.02;;;845.70;2432.00;;;;;;5071202;28;20427;-70
2021/07/28 06:43:42;;;;;;;20.55;14.00;;;870.40;2406.40;;;;;;5072776;28;20025;-71
2021/07/28 06:46:07;;;;;;;26.10;13.55;;;870.60;2406.40;;;;;;5072476;28;20029;-71
2021/07/28 06:48:33;;;;;;;22.10;14.30;;;870.70;2406.40;;;;;;5072474;28;20044;-71
2021/07/28 06:50:59;;;;;;;24.08;13.20;;;870.80;2380.80;;;;;;5072494;28;20471;-71
2021/07/28 06:53:25;;;;;;;23.92;14.63;;;870.90;2380.80;;;;;;5072064;28;20032;-71
2021/07/28 06:55:52;;;;;;;22.25;12.23;;;870.90;2380.80;;;;;;5071045;28;20032;-71
2021/07/28 06:58:18;;;;;;;22.77;14.40;;;871.10;2355.20;;;;;;5070416;28;20037;-70
2021/07/28 07:00:44;;;;;;;22.27;13.38;;;871.20;2355.20;;;;;;5072522;28;20143;-70
2021/07/28 07:03:10;;;;;;;20.83;13.02;;;871.30;2355.20;;;;;;5072010;28;20046;-70
2021/07/28 07:05:36;;;;;;;19.38;13.10;;;896.10;2278.40;;;;;;5069361;28;20040;-70
2021/07/28 07:08:02;;;;;;;24.33;13.52;;;896.20;2278.40;;;;;;5068971;28;20043;-70
2021/07/28 07:10:28;;;;;;;19.95;14.25;;;896.30;2252.80;;;;;;5069126;28;20028;-71
2021/07/28 07:12:53;;;;;;;19.55;12.52;;;896.40;2227.20;;;;;;5068940;28;20027;-72
2021/07/28 07:15:19;;;;;;;22.33;13.18;;;896.50;2176.00;;;;;;5067990;28;20017;-71
2021/07/28 07:17:45;;;;;;;18.73;12.43;;;896.50;2201.60;;;;;;5063071;28;20040;-71
2021/07/28 07:20:11;;;;;;;21.77;13.27;;;896.70;2201.60;;;;;;5053146;28;20017;-71
2021/07/28 07:22:37;;;;;;;18.55;12.65;;;921.60;2227.20;;;;;;5059919;28;20122;-75
2021/07/28 07:25:04;;;;;;;25.13;16.42;;;921.70;2176.00;;;;;;5060681;28;20044;-71
2021/07/28 07:27:30;;;;;;;18.60;12.05;;;921.80;2176.00;;;;;;5071752;28;20021;-71
2021/07/28 07:29:56;;;;;;;19.85;12.80;;;921.80;2150.40;;;;;;5060906;28;20400;-71
2021/07/28 07:32:23;;;;;;;23.42;13.82;;;921.80;2176.00;;;;;;5087706;28;20039;-72
2021/07/28 07:34:50;;;;;;;22.60;13.70;;;922.00;2150.40;;;;;;5071852;28;20405;-72
2021/07/28 07:37:16;;;;;;;25.27;13.27;;;922.10;2124.80;;;;;;5072269;28;20024;-72
2021/07/28 07:39:42;;;;;;;21.25;13.45;;;922.10;2124.80;;;;;;5077486;28;20387;-72
2021/07/28 07:42:07;;;;;;;21.08;15.55;;;922.50;2099.20;;;;;;5071698;28;20024;-72
2021/07/28 07:44:33;;;;;;;20.33;14.20;;;947.30;2099.20;;;;;;5062870;28;20024;-72
2021/07/28 07:46:59;;;;;;;26.20;18.55;;;947.30;2099.20;;;;;;5067687;28;20032;-71
2021/07/28 07:49:25;;;;;;;29.52;16.90;;;947.50;2099.20;;;;;;5077492;28;20037;-71
2021/07/28 07:51:50;;;;;;;20.60;13.65;;;947.70;2073.60;;;;;;5067359;28;20100;-71
2021/07/28 07:54:16;;;;;;;18.85;13.10;;;947.30;2048.00;;;;;;5057752;28;20175;-71
2021/07/28 07:56:42;;;;;;;24.58;14.05;;;947.60;2022.40;;;;;;5066494;28;20035;-72
2021/07/28 07:59:07;;;;;;;22.23;16.20;;;947.90;2022.40;;;;;;5070350;28;20028;-72
2021/07/28 08:01:33;;;;;;;21.60;15.00;;;947.80;1996.80;;;;;;5070899;28;20036;-72
2021/07/28 08:03:59;;;;;;;18.23;14.45;;;947.90;1996.80;;;;;;5062753;28;20528;-72
2021/07/28 08:06:24;;;;;;;18.40;13.77;;;972.80;2048.00;;;;;;5058454;28;20043;-72
2021/07/28 08:08:50;;;;;;;18.23;14.27;;;973.00;2022.40;;;;;;5067000;28;20483;-71
2021/07/28 08:11:16;;;;;;;19.90;13.43;;;973.10;2022.40;;;;;;5065464;28;20081;-72
2021/07/28 08:13:43;;;;;;;19.85;14.50;;;973.20;1996.80;;;;;;5066748;28;20074;-72
2021/07/28 08:16:20;;;;;;;18.70;13.85;;;973.30;1996.80;;;;;;5066412;28;20046;-72
2021/07/28 08:18:46;;;;;;;19.27;13.30;;;973.50;1971.20;;;;;;5064000;28;20017;-72
2021/07/28 08:21:13;;;;;;;17.35;14.13;;;973.60;1971.20;;;;;;5054286;28;20036;-72
2021/07/28 08:23:41;;;;;;;25.15;16.05;;;998.40;1996.80;;;;;;5058758;28;20075;-72
2021/07/28 08:26:07;;;;;;;21.25;14.63;;;998.40;1971.20;;;;;;5066107;28;20063;-72
2021/07/28 08:28:33;;;;;;;25.60;15.63;;;998.40;1971.20;;;;;;5066029;28;20057;-74
2021/07/28 08:30:59;;;;;;;27.02;15.95;;;998.60;1945.60;;;;;;5067129;28;20527;-72
2021/07/28 08:33:26;;;;;;;19.75;13.90;;;998.90;1920.00;;;;;;5067194;28;20099;-72
2021/07/28 08:35:56;;;;;;;23.70;12.38;;;998.90;1894.40;;;;;;5062475;28;20016;-72
2021/07/28 08:38:23;;;;;;;20.23;13.30;;;999.00;1868.80;;;;;;5069648;28;20028;-72
2021/07/28 08:40:55;;;;;;;21.77;13.70;;;999.30;1868.80;;;;;;5068812;28;20487;-72
2021/07/28 08:43:25;;;;;;;21.77;14.63;;;1024.20;1843.20;;;;;;5069655;28;20025;-72
2021/07/28 08:45:53;;;;;;;17.98;12.45;;;1024.50;1843.20;;;;;;5069186;28;20017;-72
2021/07/28 08:48:22;;;;;;;23.58;13.30;;;1024.50;1792.00;;;;;;5066501;28;20139;-73
2021/07/28 08:50:49;;;;;;;23.67;15.27;;;1024.60;1766.40;;;;;;5064874;28;20043;-72
2021/07/28 08:53:14;;;;;;;15.90;13.43;;;1024.60;1766.40;;;;;;5059599;28;20033;-72
2021/07/28 08:55:41;;;;;;;19.67;13.70;;;1024.90;1766.40;;;;;;5066586;28;20013;-73
2021/07/28 08:58:12;;;;;;;21.98;13.75;;;1049.70;1740.80;;;;;;5068779;28;20040;-72
2021/07/28 09:00:44;;;;;;;18.73;12.43;;;1050.20;1715.20;;;;;;5069627;28;20028;-72
2021/07/28 09:03:11;;;;;;;22.15;15.15;;;1075.20;1689.60;;;;;;5065948;28;20043;-72
2021/07/28 09:05:41;;;;;;;19.45;13.73;;;1075.20;1715.20;;;;;;5066399;28;20490;-72
2021/07/28 09:08:28;;;;;;;23.33;14.43;;;1075.30;1689.60;;;;;;5067360;28;20027;-72
2021/07/28 09:11:07;;;;;;;18.77;14.25;;;1050.50;1715.20;;;;;;5065968;28;20108;-73
2021/07/28 09:13:34;;;;;;;30.23;14.88;;;1075.60;1664.00;;;;;;5068141;28;20112;-73
2021/07/28 09:16:05;;;;;;;19.45;13.50;;;1075.60;1664.00;;;;;;5066892;28;20476;-73
2021/07/28 09:18:37;;;;;;;17.75;13.80;;;1075.20;1689.60;;;;;;5067956;28;20032;-72
2021/07/28 09:21:06;;;;;;;18.20;15.23;;;1075.50;1664.00;;;;;;5068072;28;20107;-72
2021/07/28 09:23:39;;;;;;;20.38;14.20;;;1075.20;1689.60;;;;;;5065078;28;20064;-72
2021/07/28 09:26:25;;;;;;;20.02;13.70;;;1050.50;1689.60;;;;;;5078277;28;20052;-73
2021/07/28 09:29:17;;;;;;;19.83;13.82;;;1050.40;1638.40;;;;;;5064114;28;20045;-72
2021/07/28 09:31:48;;;;;;;21.15;11.43;;;1075.20;1638.40;;;;;;5067655;28;20024;-72
2021/07/28 09:34:21;;;;;;;19.52;12.60;;;1075.20;1587.20;;;;;;5064899;28;20021;-72
2021/07/28 09:37:01;;;;;;;22.02;13.70;;;1075.60;1587.20;;;;;;5066947;28;20013;-73
2021/07/28 09:39:29;;;;;;;16.75;13.18;;;1075.90;1561.60;;;;;;5068173;28;20162;-72
2021/07/28 09:42:15;;;;;;;24.95;14.55;;;1075.70;1587.20;;;;;;5071295;28;20024;-73
2021/07/28 09:44:44;;;;;;;24.63;12.00;;;1050.30;1638.40;;;;;;5071438;28;20491;-72
2021/07/28 09:47:16;;;;;;;27.00;14.50;;;1050.20;1664.00;;;;;;5067812;28;20017;-72
2021/07/28 09:49:44;;;;;;;23.35;14.77;;;1075.20;1612.80;;;;;;5069867;28;20028;-73
2021/07/28 09:52:19;;;;;;;18.75;14.77;;;1075.50;1612.80;;;;;;5072186;28;20048;-73
2021/07/28 09:54:47;;;;;;;19.75;13.57;;;1075.80;1587.20;;;;;;5069922;28;20029;-73
2021/07/28 09:57:20;;;;;;;21.67;13.68;;;1075.80;1561.60;;;;;;5073885;28;20103;-74
2021/07/28 09:59:54;;;;;;;23.55;13.02;;;1075.70;1561.60;;;;;;5071035;28;20103;-73
2021/07/28 10:02:22;;;;;;;16.52;12.95;;;1076.00;1536.00;;;;;;5073394;28;20024;-77
2021/07/28 10:04:50;;;;;;;18.10;12.77;;;1101.30;1536.00;;;;;;5070660;28;20033;-75
2021/07/28 10:07:17;;;;;;;18.30;13.10;;;1101.70;1510.40;;;;;;5072731;28;20034;-73
2021/07/28 10:09:49;;;;;;;21.38;13.50;;;1101.70;1536.00;;;;;;5075992;28;20495;-74
2021/07/28 10:12:16;;;;;;;18.00;14.07;;;1126.60;1536.00;;;;;;5074288;28;20036;-73
2021/07/28 10:14:43;;;;;;;19.98;14.10;;;1126.80;1510.40;;;;;;5072218;28;20025;-74
2021/07/28 10:17:11;;;;;;;15.68;12.40;;;1126.50;1536.00;;;;;;5074809;28;20046;-73
2021/07/28 10:19:37;;;;;;;23.92;12.48;;;1101.70;1536.00;;;;;;5073647;28;20035;-73
2021/07/28 10:22:03;;;;;;;22.67;14.52;;;1126.60;1536.00;;;;;;5073522;28;20024;-73
2021/07/28 10:24:29;;;;;;;23.33;17.17;;;1126.80;1510.40;;;;;;5075280;28;20028;-73
2021/07/28 10:26:59;;;;;;;22.83;19.70;;;1126.90;1459.20;;;;;;5075087;28;20051;-74
2021/07/28 10:29:25;;;;;;;19.77;16.80;;;1127.00;1433.60;;;;;;5076278;28;20041;-73
2021/07/28 10:31:53;;;;;;;27.35;19.10;;;1127.30;1433.60;;;;;;5071861;28;20029;-72
2021/07/28 10:34:33;;;;;;;27.15;19.27;;;1152.00;1433.60;;;;;;5072072;28;20009;-73
2021/07/28 10:37:07;;;;;;;24.83;17.95;;;1126.90;1433.60;;;;;;5071809;28;20096;-73
2021/07/28 10:39:52;;;;;;;22.70;16.95;;;1127.00;1433.60;;;;;;5072914;28;20024;-72
2021/07/28 10:42:30;;;;;;;22.23;13.32;;;1127.30;1408.00;;;;;;5073256;28;20021;-72
2021/07/28 10:45:07;;;;;;;17.45;13.35;;;1126.90;1382.40;;;;;;5068680;28;20033;-72
2021/07/28 10:47:46;;;;;;;23.38;15.65;;;1127.30;1382.40;;;;;;5070138;28;20127;-72
2021/07/28 10:50:24;;;;;;;21.13;15.07;;;1127.30;1382.40;;;;;;5070664;28;20024;-72
2021/07/28 10:53:03;;;;;;;30.48;22.95;;;1152.20;1356.80;;;;;;5066889;28;20092;-72
2021/07/28 10:55:30;;;;;;;19.60;13.57;;;1152.60;1331.20;;;;;;5070271;28;20056;-72
2021/07/28 10:58:10;;;;;;;27.08;14.35;;;1152.30;1305.60;;;;;;5071529;28;20024;-72
2021/07/28 11:00:39;;;;;;;26.20;20.17;;;1177.70;1331.20;;;;;;5084523;28;20043;-72
2021/07/28 11:03:12;;;;;;;28.45;20.95;;;1177.70;1305.60;;;;;;5073234;28;20030;-72
2021/07/28 11:05:39;;;;;;;29.35;20.88;;;1178.40;1280.00;;;;;;5072819;28;20772;-72
2021/07/28 11:08:05;;;;;;;29.42;20.95;;;1203.30;1280.00;;;;;;5069918;28;20099;-72
2021/07/28 11:10:49;;;;;;;26.73;19.23;;;1178.40;1254.40;;;;;;5070662;28;20128;-73
2021/07/28 11:13:17;;;;;;;25.77;18.30;;;1178.40;1254.40;;;;;;5068746;28;20020;-72
2021/07/28 11:15:58;;;;;;;24.98;20.33;;;1203.30;1280.00;;;;;;5061452;28;20052;-73
2021/07/28 11:18:41;;;;;;;19.67;14.85;;;1203.70;1280.00;;;;;;5061571;28;20024;-73
2021/07/28 11:21:18;;;;;;;22.65;16.95;;;1203.80;1254.40;;;;;;5060064;28;20040;-73
2021/07/28 11:23:45;;;;;;;25.13;16.70;;;1204.00;1254.40;;;;;;5062116;28;20036;-72
2021/07/28 11:26:18;;;;;;;26.10;18.67;;;1204.00;1254.40;;;;;;5064480;28;20484;-73
2021/07/28 11:28:46;;;;;;;27.27;18.98;;;1203.30;1280.00;;;;;;5069177;28;20415;-73
2021/07/28 11:31:11;;;;;;;25.05;17.83;;;1178.30;1254.40;;;;;;5068209;28;20036;-72
2021/07/28 11:33:37;;;;;;;24.60;14.98;;;1178.10;1280.00;;;;;;5068930;28;20021;-72
2021/07/28 11:36:04;;;;;;;22.73;14.68;;;1177.80;1280.00;;;;;;5069149;28;20020;-72
2021/07/28 11:38:37;;;;;;;20.50;12.90;;;1178.30;1254.40;;;;;;5067148;28;20078;-72
2021/07/28 11:41:06;;;;;;;23.30;11.95;;;1177.60;1254.40;;;;;;5068908;28;20028;-72
2021/07/28 11:43:35;;;;;;;23.02;13.10;;;1177.80;1254.40;;;;;;5065395;28;20029;-72
2021/07/28 11:46:04;;;;;;;17.50;11.68;;;1152.70;1280.00;;;;;;5068124;28;20090;-72
2021/07/28 11:48:46;;;;;;;15.98;11.30;;;1127.00;1305.60;;;;;;5066602;28;20025;-72
2021/07/28 11:51:27;;;;;;;22.50;12.05;;;1126.70;1305.60;;;;;;5068572;28;20024;-72
2021/07/28 11:54:13;;;;;;;19.55;12.73;;;1126.70;1331.20;;;;;;5066163;28;20067;-72
2021/07/28 11:56:49;;;;;;;21.20;11.52;;;1101.50;1356.80;;;;;;5069535;28;20032;-72
2021/07/28 11:59:23;;;;;;;20.73;12.25;;;1126.40;1356.80;;;;;;5069336;28;20020;-72
2021/07/28 12:01:51;;;;;;;21.35;13.70;;;1126.90;1331.20;;;;;;5069496;28;20087;-72
2021/07/28 12:04:19;;;;;;;17.40;13.60;;;1126.70;1280.00;;;;;;5069371;28;20017;-72